Time;durP1;ratioP1;P1;durP2;ratioP2;P2;SDS_P1;SDS_P2;PMS_P1;PMS_P2;Temp;Humidity;BMP_temperature;BMP_pressure;BME280_temperature;BME280_humidity;BME280_pressure;Samples;Min_cycle;Max_cycle;Signal;HPM_P1;HPM_P2
2022/07/01 00:02:17;;;;;;;1.10;1.00;;;;;;;14.00;100.00;101349.91;4886930;29;20400;-82
2022/07/01 00:04:42;;;;;;;1.10;1.00;;;;;;;13.99;100.00;101349.06;4899968;29;20553;-78
2022/07/01 00:07:10;;;;;;;1.88;0.90;;;;;;;13.97;100.00;101350.94;4905652;29;20164;-80
2022/07/01 00:09:36;;;;;;;2.75;1.20;;;;;;;13.96;100.00;101359.84;4921952;29;20046;-77
2022/07/01 00:12:01;;;;;;;1.45;1.35;;;;;;;13.94;100.00;101351.09;4916690;29;20514;-79
2022/07/01 00:14:27;;;;;;;2.03;1.52;;;;;;;13.95;100.00;101363.47;4922042;29;20106;-80
2022/07/01 00:16:53;;;;;;;2.20;1.85;;;;;;;13.96;100.00;101365.16;4920713;29;20052;-76
2022/07/01 00:19:18;;;;;;;2.05;1.52;;;;;;;13.93;100.00;101365.34;4901333;29;20047;-78
2022/07/01 00:21:44;;;;;;;2.42;1.17;;;;;;;13.92;100.00;101371.59;4907405;29;20048;-78
2022/07/01 00:24:13;;;;;;;2.35;1.40;;;;;;;13.91;100.00;101377.00;4920317;29;20037;-78
2022/07/01 00:26:38;;;;;;;2.53;1.58;;;;;;;13.91;100.00;101382.31;4887833;29;20103;-80
2022/07/01 00:29:04;;;;;;;1.25;1.13;;;;;;;13.89;100.00;101384.22;4923243;29;20036;-78
2022/07/01 00:31:30;;;;;;;1.50;1.05;;;;;;;13.85;100.00;101378.19;4908350;29;20118;-78
2022/07/01 00:33:55;;;;;;;2.42;1.15;;;;;;;13.83;100.00;101369.41;4900388;29;20371;-79
2022/07/01 00:36:21;;;;;;;1.23;0.88;;;;;;;13.81;100.00;101363.31;4920520;28;20047;-79
2022/07/01 00:38:46;;;;;;;1.05;0.95;;;;;;;13.80;100.00;101356.25;4921025;29;20043;-78
2022/07/01 00:41:12;;;;;;;2.10;1.25;;;;;;;13.77;100.00;101373.25;4923277;29;20054;-78
2022/07/01 00:43:38;;;;;;;1.52;1.00;;;;;;;13.81;100.00;101387.25;4925840;29;20562;-78
2022/07/01 00:46:04;;;;;;;2.55;1.33;;;;;;;13.79;100.00;101370.50;4921907;29;20513;-80
2022/07/01 00:48:31;;;;;;;1.58;1.40;;;;;;;13.78;100.00;101339.53;4908629;29;20401;-80
2022/07/01 00:50:57;;;;;;;3.40;1.40;;;;;;;13.76;100.00;101346.69;4903894;29;20047;-81
2022/07/01 00:53:23;;;;;;;1.88;1.30;;;;;;;13.78;100.00;101329.72;4905000;29;20052;-80
2022/07/01 00:55:49;;;;;;;1.40;1.20;;;;;;;13.74;100.00;101309.56;4917732;29;20111;-80
2022/07/01 00:58:15;;;;;;;1.75;1.55;;;;;;;13.75;100.00;101307.72;4918229;29;20040;-78
2022/07/01 01:00:41;;;;;;;2.50;1.50;;;;;;;13.76;100.00;101312.13;4917178;29;20539;-80
2022/07/01 01:03:10;;;;;;;1.95;1.30;;;;;;;13.75;100.00;101311.28;4932735;28;20040;-78
2022/07/01 01:05:35;;;;;;;2.53;1.52;;;;;;;13.77;100.00;101317.38;4916834;29;20324;-78
2022/07/01 01:08:01;;;;;;;3.50;1.55;;;;;;;13.78;100.00;101319.09;4916431;29;20154;-78
2022/07/01 01:10:27;;;;;;;2.83;1.20;;;;;;;13.77;100.00;101305.88;4931013;28;20047;-79
2022/07/01 01:12:55;;;;;;;2.00;1.50;;;;;;;13.77;100.00;101308.53;4930800;28;20131;-79
2022/07/01 01:15:24;;;;;;;1.75;1.40;;;;;;;13.78;100.00;101316.41;4879486;29;20051;-79
2022/07/01 01:17:50;;;;;;;2.50;1.45;;;;;;;13.78;100.00;101316.41;4928722;28;20069;-79
2022/07/01 01:20:16;;;;;;;2.13;1.50;;;;;;;13.75;100.00;101310.41;4899078;29;20134;-79
2022/07/01 01:22:44;;;;;;;2.40;1.63;;;;;;;13.76;100.00;101306.78;4931099;28;20472;-79
2022/07/01 01:25:09;;;;;;;2.28;1.50;;;;;;;13.74;100.00;101309.56;4916762;29;20047;-79
2022/07/01 01:27:36;;;;;;;3.03;1.73;;;;;;;13.73;100.00;101314.94;4931668;29;20407;-80
2022/07/01 01:30:07;;;;;;;2.25;1.75;;;;;;;13.71;100.00;101307.03;4916068;29;20439;-79
2022/07/01 01:32:35;;;;;;;2.30;1.60;;;;;;;13.71;100.00;101304.38;4915095;29;20048;-80
2022/07/01 01:35:01;;;;;;;3.70;1.98;;;;;;;13.66;100.00;101304.63;4918632;29;20039;-78
2022/07/01 01:37:29;;;;;;;4.32;2.10;;;;;;;13.63;100.00;101301.25;4931194;29;20046;-80
2022/07/01 01:39:55;;;;;;;2.65;2.10;;;;;;;13.60;100.00;101302.25;4916773;28;20055;-78
2022/07/01 01:42:21;;;;;;;3.30;2.45;;;;;;;13.56;100.00;101303.34;4917818;29;20119;-78
2022/07/01 01:44:47;;;;;;;3.03;2.30;;;;;;;13.57;100.00;101311.25;4916503;29;20134;-78
2022/07/01 01:47:12;;;;;;;3.47;2.65;;;;;;;13.56;100.00;101314.88;4913486;29;20126;-79
2022/07/01 01:49:38;;;;;;;2.50;2.22;;;;;;;13.55;100.00;101323.78;4918481;28;20048;-77
2022/07/01 01:52:03;;;;;;;4.28;2.50;;;;;;;13.51;100.00;101326.69;4907901;28;20079;-78
2022/07/01 01:54:29;;;;;;;3.97;2.42;;;;;;;13.49;100.00;101321.44;4933762;28;21461;-79
2022/07/01 01:56:55;;;;;;;3.45;2.53;;;;;;;13.50;100.00;101338.25;4928871;28;20106;-79
2022/07/01 01:59:20;;;;;;;3.42;2.35;;;;;;;13.48;100.00;101342.78;4946284;28;20102;-79
2022/07/01 02:01:46;;;;;;;4.53;2.50;;;;;;;13.48;100.00;101348.09;4929903;28;20069;-79
2022/07/01 02:04:12;;;;;;;4.03;2.42;;;;;;;13.48;100.00;101348.09;4922543;28;20043;-78
2022/07/01 02:06:40;;;;;;;3.28;2.50;;;;;;;13.46;100.00;101353.53;4893460;28;20032;-79
2022/07/01 02:09:06;;;;;;;3.80;2.55;;;;;;;13.47;100.00;101367.66;4933787;28;20406;-79
2022/07/01 02:11:32;;;;;;;5.03;2.80;;;;;;;13.44;100.00;101363.31;4909822;28;20046;-79
2022/07/01 02:13:58;;;;;;;2.67;2.22;;;;;;;13.47;100.00;101367.66;4938652;28;20500;-79
2022/07/01 02:16:23;;;;;;;2.63;2.28;;;;;;;13.42;100.00;101368.69;4922486;28;20036;-78
2022/07/01 02:18:49;;;;;;;3.15;2.10;;;;;;;13.45;100.00;101386.31;4915721;28;20174;-79
2022/07/01 02:21:15;;;;;;;2.70;1.92;;;;;;;13.43;100.00;101385.53;4917229;28;20059;-79
2022/07/01 02:23:40;;;;;;;2.83;2.05;;;;;;;13.42;100.00;101379.34;4919412;28;20487;-78
2022/07/01 02:26:06;;;;;;;2.55;2.03;;;;;;;13.37;100.00;101385.84;4936278;28;20043;-78
2022/07/01 02:28:31;;;;;;;3.38;2.08;;;;;;;13.35;100.00;101383.25;4933913;28;20553;-79
2022/07/01 02:30:57;;;;;;;2.72;2.08;;;;;;;13.36;100.00;101385.00;4934182;28;20054;-79
2022/07/01 02:33:23;;;;;;;2.83;2.15;;;;;;;13.33;100.00;101377.13;4942836;28;20047;-78
2022/07/01 02:35:48;;;;;;;3.88;2.05;;;;;;;13.34;100.00;101372.69;4937724;28;20434;-78
2022/07/01 02:38:14;;;;;;;2.67;2.30;;;;;;;13.32;100.00;101386.06;4940045;28;20066;-78
2022/07/01 02:40:40;;;;;;;4.75;2.50;;;;;;;13.33;100.00;101385.13;4937739;28;20039;-77
2022/07/01 02:43:08;;;;;;;3.83;2.42;;;;;;;13.34;100.00;101391.31;4920738;28;20034;-79
2022/07/01 02:45:34;;;;;;;5.18;3.10;;;;;;;13.32;100.00;101391.38;4940744;28;20422;-77
2022/07/01 02:48:01;;;;;;;2.50;2.25;;;;;;;13.31;100.00;101397.63;4920546;28;20040;-79
2022/07/01 02:50:28;;;;;;;4.93;2.85;;;;;;;13.32;100.00;101394.03;4916853;28;20050;-78
2022/07/01 02:52:54;;;;;;;4.15;2.65;;;;;;;13.31;100.00;101400.28;4937833;28;20107;-78
2022/07/01 02:55:20;;;;;;;4.97;2.90;;;;;;;13.33;100.00;101409.06;4918373;28;20452;-78
2022/07/01 02:57:49;;;;;;;3.88;2.65;;;;;;;13.35;100.00;101406.31;4939776;28;21602;-79
2022/07/01 03:00:15;;;;;;;5.50;3.45;;;;;;;13.35;100.00;101391.22;4895885;28;20188;-78
2022/07/01 03:02:40;;;;;;;4.10;3.10;;;;;;;13.35;100.00;101388.56;4942341;28;20386;-78
2022/07/01 03:05:07;;;;;;;4.93;3.40;;;;;;;13.34;100.00;101372.69;4942897;28;20474;-79
2022/07/01 03:07:34;;;;;;;4.78;3.10;;;;;;;13.33;100.00;101368.31;4938727;28;20039;-79
2022/07/01 03:10:01;;;;;;;6.28;3.65;;;;;;;13.33;100.00;101366.50;4940942;28;20964;-78
2022/07/01 03:12:29;;;;;;;4.50;2.90;;;;;;;13.31;100.00;101363.06;4939705;28;20043;-78
2022/07/01 03:15:01;;;;;;;7.55;3.55;;;;;;;13.29;100.00;101365.78;4923910;28;20502;-79
2022/07/01 03:17:29;;;;;;;6.82;3.58;;;;;;;13.29;100.00;101378.25;4937626;28;20116;-78
2022/07/01 03:19:55;;;;;;;5.65;3.17;;;;;;;13.28;100.00;101373.84;4921124;28;20046;-77
2022/07/01 03:22:22;;;;;;;6.10;3.50;;;;;;;13.27;100.00;101373.00;4936599;28;20086;-78
2022/07/01 03:24:49;;;;;;;5.82;3.60;;;;;;;13.26;100.00;101381.91;4923155;28;20365;-79
2022/07/01 03:27:15;;;;;;;6.78;3.92;;;;;;;13.25;100.00;101385.47;4939981;28;20710;-78
2022/07/01 03:29:41;;;;;;;7.75;3.45;;;;;;;13.26;100.00;101400.53;4940106;28;20050;-78
2022/07/01 03:32:09;;;;;;;5.00;2.95;;;;;;;13.23;100.00;101399.81;4941426;28;20086;-79
2022/07/01 03:34:37;;;;;;;6.55;3.40;;;;;;;13.24;100.00;101399.72;4921687;28;20142;-79
2022/07/01 03:37:04;;;;;;;5.40;3.05;;;;;;;13.22;100.00;101390.97;4922444;28;20055;-78
2022/07/01 03:39:30;;;;;;;6.30;2.85;;;;;;;13.25;100.00;101398.78;4933709;28;20142;-77
2022/07/01 03:41:56;;;;;;;5.55;2.85;;;;;;;13.27;100.00;101390.72;4938565;28;20102;-78
2022/07/01 03:44:21;;;;;;;3.70;2.65;;;;;;;13.27;100.00;101385.41;4933610;28;20642;-79
2022/07/01 03:46:47;;;;;;;4.78;2.90;;;;;;;13.27;100.00;101377.44;4921577;28;20432;-79
2022/07/01 03:49:12;;;;;;;4.55;3.08;;;;;;;13.24;100.00;101375.78;4924645;28;20055;-79
2022/07/01 03:51:38;;;;;;;5.18;2.70;;;;;;;13.24;100.00;101382.91;4919655;28;20066;-78
2022/07/01 03:56:48;;;;;;;5.75;3.03;;;;;;;13.26;100.00;101397.00;4938866;28;20054;-78
2022/07/01 03:59:14;;;;;;;5.35;2.85;;;;;;;13.27;100.00;101401.38;4935053;28;20398;-78
2022/07/01 04:01:40;;;;;;;4.32;2.75;;;;;;;13.27;100.00;101396.94;4936676;28;20043;-76
2022/07/01 04:04:05;;;;;;;8.52;2.78;;;;;;;13.27;100.00;101404.03;4927684;28;20054;-79
2022/07/01 04:06:31;;;;;;;5.00;2.53;;;;;;;13.26;100.00;101403.19;4926832;28;20103;-78
2022/07/01 04:08:57;;;;;;;7.13;3.33;;;;;;;13.27;100.00;101414.66;4902253;28;20051;-79
2022/07/01 04:11:22;;;;;;;4.55;2.50;;;;;;;13.27;100.00;101414.66;4941561;28;20046;-79
2022/07/01 04:13:51;;;;;;;3.25;2.80;;;;;;;13.25;100.00;101412.06;4939486;28;20055;-78
2022/07/01 04:16:17;;;;;;;3.65;2.42;;;;;;;13.27;100.00;101425.28;4938452;28;20078;-78
2022/07/01 04:18:43;;;;;;;4.18;2.55;;;;;;;13.26;100.00;101415.59;4940107;28;20048;-79
2022/07/01 04:23:53;;;;;;;2.95;2.15;;;;;;;13.25;100.00;101427.19;4938645;28;20039;-77
2022/07/01 04:26:18;;;;;;;3.88;2.10;;;;;;;13.24;100.00;101430.78;4938901;28;20721;-77
2022/07/01 04:28:44;;;;;;;4.20;2.20;;;;;;;13.24;100.00;101426.31;4938022;28;20036;-79
2022/07/01 04:31:09;;;;;;;2.08;1.83;;;;;;;13.24;100.00;101430.78;4926541;28;20051;-78
2022/07/01 04:33:35;;;;;;;5.55;2.00;;;;;;;13.26;100.00;101439.53;4934166;28;20043;-78
2022/07/01 04:36:04;;;;;;;2.72;2.17;;;;;;;13.26;100.00;101439.53;4927040;28;20052;-79
2022/07/01 04:38:30;;;;;;;3.10;2.28;;;;;;;13.25;100.00;101437.81;4939532;28;20041;-78
2022/07/01 04:43:40;;;;;;;2.55;2.00;;;;;;;13.25;100.00;101446.63;4940114;28;20051;-78
2022/07/01 04:46:08;;;;;;;3.33;2.10;;;;;;;13.25;100.00;101451.09;4937286;28;20683;-78
2022/07/01 04:48:33;;;;;;;3.53;2.53;;;;;;;13.26;100.00;101451.03;4941706;28;20079;-79
2022/07/01 04:50:59;;;;;;;3.15;2.40;;;;;;;13.28;100.00;101448.28;4927809;28;20143;-78
2022/07/01 04:53:25;;;;;;;5.40;3.10;;;;;;;13.30;100.00;101449.09;4922245;28;20055;-78
2022/07/01 04:55:50;;;;;;;5.68;3.15;;;;;;;13.30;100.00;101431.31;4938080;28;20055;-76
2022/07/01 04:58:16;;;;;;;6.80;3.53;;;;;;;13.34;100.00;101442.69;4917480;28;20047;-76
2022/07/01 05:00:42;;;;;;;5.15;3.38;;;;;;;13.34;100.00;101450.66;4936160;28;20031;-78
2022/07/01 05:03:08;;;;;;;7.65;3.70;;;;;;;13.36;100.00;101448.81;4932768;28;20489;-79
2022/07/01 05:05:34;;;;;;;8.75;4.07;;;;;;;13.38;100.00;101452.25;4920354;28;20054;-77
2022/07/01 05:07:59;;;;;;;5.47;3.75;;;;;;;13.40;100.00;101460.16;4939832;28;20046;-76
2022/07/01 05:10:28;;;;;;;6.20;4.10;;;;;;;13.42;100.00;101455.63;4917419;28;20047;-76
2022/07/01 05:12:54;;;;;;;6.60;4.03;;;;;;;13.48;100.00;101454.50;4892416;28;20035;-76
2022/07/01 05:15:20;;;;;;;6.43;4.25;;;;;;;13.50;100.00;101468.59;4941356;28;20043;-76
2022/07/01 05:23:16;;;;;;;10.02;5.47;;;;;;;13.65;100.00;101482.94;4921521;28;20047;-79
2022/07/01 05:25:41;;;;;;;9.68;5.47;;;;;;;13.67;100.00;101484.59;4926878;28;20051;-78
2022/07/01 05:28:07;;;;;;;9.48;6.15;;;;;;;13.71;100.00;101490.63;4930604;28;20039;-78
2022/07/01 05:30:32;;;;;;;8.55;5.53;;;;;;;13.75;100.00;101486.00;4945275;28;20043;-77
2022/07/01 05:32:58;;;;;;;15.07;6.57;;;;;;;13.79;100.00;101479.63;4935677;28;20026;-78
2022/07/01 05:35:23;;;;;;;13.10;6.40;;;;;;;13.83;100.00;101483.84;4936918;28;20114;-77
2022/07/01 05:37:49;;;;;;;9.30;5.95;;;;;;;13.86;100.00;101481.03;4919314;28;20046;-78
2022/07/01 05:40:15;;;;;;;9.18;5.63;;;;;;;13.88;100.00;101478.31;4928290;28;20155;-78
2022/07/01 05:42:40;;;;;;;13.55;7.93;;;;;;;13.91;100.00;101483.47;4942485;28;20177;-77
2022/07/01 05:45:09;;;;;;;10.98;6.20;;;;;;;13.94;100.00;101488.66;4916002;28;20031;-77
2022/07/01 05:47:34;;;;;;;9.70;6.63;;;;;;;13.97;100.00;101489.38;4936934;28;20498;-76
2022/07/01 05:50:00;;;;;;;11.00;6.22;;;;;;;14.00;100.00;101485.66;4944455;28;20043;-77
2022/07/01 05:52:26;;;;;;;8.80;5.78;;;;;;;14.02;100.00;101478.47;4945040;28;20046;-78
2022/07/01 05:54:52;;;;;;;9.32;4.55;;;;;;;14.01;100.00;101467.91;4946000;28;20652;-78
2022/07/01 05:57:17;;;;;;;7.65;4.47;;;;;;;14.04;100.00;101470.41;4933480;28;20098;-77
2022/07/01 05:59:43;;;;;;;7.85;4.65;;;;;;;14.05;100.00;101469.50;4943179;28;20094;-77
2022/07/01 06:02:09;;;;;;;8.43;4.10;;;;;;;14.05;100.00;101467.66;4919870;28;20525;-76
2022/07/01 06:04:34;;;;;;;6.57;4.63;;;;;;;14.09;100.00;101473.69;4937932;28;20043;-76
2022/07/01 06:07:03;;;;;;;8.60;4.28;;;;;;;14.09;100.00;101469.25;4945163;28;20051;-77
2022/07/01 06:09:35;;;;;;;10.23;4.45;;;;;;;14.11;100.00;101472.69;4937743;28;20561;-76
2022/07/01 06:12:00;;;;;;;7.18;3.95;;;;;;;14.13;100.00;101475.28;4929800;28;20143;-77
2022/07/01 06:14:27;;;;;;;6.28;3.90;;;;;;;14.15;100.00;101481.38;4937571;28;20039;-76
2022/07/01 06:16:52;;;;;;;7.45;3.55;;;;;;;14.16;100.00;101480.44;4923647;28;20099;-76
2022/07/01 06:19:19;;;;;;;6.95;4.05;;;;;;;14.17;100.00;101490.13;4938956;28;20878;-76
2022/07/01 06:21:45;;;;;;;6.80;3.63;;;;;;;14.19;100.00;101488.28;4937914;28;20051;-77
2022/07/01 06:24:10;;;;;;;5.65;3.08;;;;;;;14.21;100.00;101481.06;4936787;28;20043;-78
2022/07/01 06:26:36;;;;;;;9.73;3.25;;;;;;;14.21;100.00;101464.22;4941359;28;20131;-76
2022/07/01 06:29:02;;;;;;;4.30;2.65;;;;;;;14.21;100.00;101474.88;4937733;28;20039;-76
2022/07/01 06:31:27;;;;;;;4.43;2.45;;;;;;;14.18;100.00;101473.25;4915742;28;20418;-76
2022/07/01 06:33:53;;;;;;;6.28;2.63;;;;;;;14.20;100.00;101479.34;4938072;28;20639;-76
2022/07/01 06:36:18;;;;;;;7.55;2.95;;;;;;;14.21;100.00;101469.53;4937282;28;20049;-76
2022/07/01 06:38:44;;;;;;;4.78;2.22;;;;;;;14.24;100.00;101478.28;4939555;28;21837;-76
2022/07/01 06:41:28;;;;;;;5.43;2.50;;;;;;;14.24;100.00;101486.25;4939099;28;20517;-75
2022/07/01 06:43:58;;;;;;;5.78;2.38;;;;;;;14.28;100.00;101481.63;4938291;28;20098;-76
2022/07/01 06:46:24;;;;;;;5.75;2.45;;;;;;;14.31;100.00;101483.25;4938699;28;20039;-77
2022/07/01 06:48:49;;;;;;;4.65;2.58;;;;;;;14.35;100.00;101483.03;4935122;28;20049;-76
2022/07/01 06:51:15;;;;;;;4.90;2.72;;;;;;;14.40;100.00;101485.47;4929795;28;20569;-75
2022/07/01 06:53:41;;;;;;;4.93;3.13;;;;;;;14.46;100.00;101478.94;4938483;28;20050;-75
2022/07/01 06:56:08;;;;;;;6.63;3.38;;;;;;;14.48;100.00;101477.06;4902678;28;20047;-75
2022/07/01 06:58:33;;;;;;;6.05;3.55;;;;;;;14.53;100.00;101478.56;4921504;28;20047;-75
2022/07/01 07:00:59;;;;;;;6.07;3.10;;;;;;;14.56;100.00;101466.88;4937554;28;20039;-75
2022/07/01 07:03:25;;;;;;;8.23;3.45;;;;;;;14.62;100.00;101476.34;4938422;28;20039;-75
2022/07/01 07:05:52;;;;;;;6.78;3.10;;;;;;;14.69;100.00;101476.88;4938505;28;20050;-74
2022/07/01 07:08:21;;;;;;;6.60;3.25;;;;;;;14.76;100.00;101487.16;4939288;28;20039;-75
2022/07/01 07:10:47;;;;;;;5.07;3.40;;;;;;;14.82;100.00;101495.78;4924286;28;20054;-75
2022/07/01 07:13:13;;;;;;;5.18;3.10;;;;;;;14.87;100.00;101499.94;4938488;28;20040;-74
2022/07/01 07:15:41;;;;;;;3.65;2.50;;;;;;;14.92;100.00;101500.53;4935733;28;20043;-76
2022/07/01 07:18:07;;;;;;;5.15;2.63;;;;;;;14.99;100.00;101511.72;4922852;28;20070;-75
2022/07/01 07:20:34;;;;;;;6.18;2.60;;;;;;;15.03;100.00;101518.63;4941696;28;20126;-75
2022/07/01 07:23:00;;;;;;;3.55;2.20;;;;;;;15.07;100.00;101517.53;4940449;28;20069;-76
2022/07/01 07:25:27;;;;;;;4.45;2.08;;;;;;;15.15;100.00;101519.78;4932375;28;20351;-75
2022/07/01 07:27:52;;;;;;;3.50;1.95;;;;;;;15.21;100.00;101514.09;4939220;28;20062;-75
2022/07/01 07:30:18;;;;;;;4.82;2.10;;;;;;;15.32;100.00;101520.66;4927195;28;20050;-75
2022/07/01 07:32:44;;;;;;;3.50;1.80;;;;;;;15.40;100.00;101523.78;4917293;28;20650;-75
2022/07/01 07:35:10;;;;;;;5.85;2.22;;;;;;;15.45;100.00;101516.38;4939538;28;20709;-75
2022/07/01 07:37:36;;;;;;;4.25;2.10;;;;;;;15.55;100.00;101522.06;4939278;28;20095;-75
2022/07/01 07:40:03;;;;;;;5.45;2.17;;;;;;;15.59;100.00;101512.91;4938876;28;20514;-75
2022/07/01 07:42:29;;;;;;;4.75;2.10;;;;;;;15.71;100.00;101515.84;4918212;28;20755;-75
2022/07/01 07:44:54;;;;;;;2.85;1.85;;;;;;;15.80;100.00;101520.66;4918917;28;20054;-75
2022/07/01 07:47:21;;;;;;;4.13;1.80;;;;;;;15.95;100.00;101520.78;4897834;28;20038;-75
2022/07/01 07:49:50;;;;;;;2.55;1.75;;;;;;;16.10;100.00;101522.56;4922917;28;20475;-76
2022/07/01 07:52:15;;;;;;;5.07;2.10;;;;;;;16.24;100.00;101527.09;4917292;28;20126;-75
2022/07/01 07:54:41;;;;;;;3.58;2.17;;;;;;;16.47;100.00;101534.69;4934513;28;20541;-75
2022/07/01 07:57:07;;;;;;;2.70;1.50;;;;;;;16.64;100.00;101531.88;4926092;28;20052;-75
2022/07/01 07:59:33;;;;;;;3.47;1.48;;;;;;;16.84;100.00;101527.16;4920421;28;20042;-76
2022/07/01 08:01:59;;;;;;;5.18;1.30;;;;;;;16.90;100.00;101526.78;4940255;28;20035;-75
2022/07/01 08:04:25;;;;;;;1.75;1.58;;;;;;;16.87;100.00;101532.28;4915074;28;20089;-75
2022/07/01 08:06:50;;;;;;;4.85;1.50;;;;;;;16.91;100.00;101532.97;4937787;28;20067;-75
2022/07/01 08:09:16;;;;;;;2.60;1.30;;;;;;;16.91;100.00;101535.63;4936125;28;20123;-75
2022/07/01 08:11:42;;;;;;;2.10;1.13;;;;;;;16.83;100.00;101522.72;4914872;28;20125;-75
2022/07/01 08:14:08;;;;;;;5.18;1.42;;;;;;;16.81;100.00;101538.00;4924633;28;20524;-76
2022/07/01 08:16:34;;;;;;;2.55;1.40;;;;;;;16.79;100.00;101537.25;4943124;28;20035;-74
2022/07/01 08:19:01;;;;;;;2.13;1.30;;;;;;;16.79;100.00;101547.94;4902004;28;20134;-74
2022/07/01 08:21:27;;;;;;;2.92;1.40;;;;;;;16.77;100.00;101542.69;4936435;28;20126;-78
2022/07/01 08:23:53;;;;;;;2.60;1.50;;;;;;;16.77;100.00;101548.03;4936449;28;20477;-77
2022/07/01 08:26:21;;;;;;;3.10;1.40;;;;;;;16.75;100.00;101565.13;4934992;28;20047;-76
2022/07/01 08:28:47;;;;;;;3.45;1.35;;;;;;;16.68;100.00;101564.63;4931547;28;20066;-76
2022/07/01 08:31:13;;;;;;;4.28;1.40;;;;;;;16.62;100.00;101576.53;4880300;28;20039;-77
2022/07/01 08:33:40;;;;;;;6.60;1.30;;;;;;;16.57;100.00;101575.97;4933661;28;20102;-77
2022/07/01 08:36:09;;;;;;;2.20;1.25;;;;;;;16.52;100.00;101570.03;4914019;28;20075;-77
2022/07/01 08:38:36;;;;;;;2.70;1.20;;;;;;;16.46;100.00;101571.28;4912970;28;20040;-77
2022/07/01 08:41:03;;;;;;;1.10;1.00;;;;;;;16.39;100.00;101561.88;4934794;28;20066;-77
2022/07/01 08:43:29;;;;;;;2.80;0.90;;;;;;;16.40;100.00;101564.44;4903947;28;20438;-77
2022/07/01 08:45:54;;;;;;;2.92;1.20;;;;;;;16.49;100.00;101565.72;4913173;28;20050;-77
2022/07/01 08:48:20;;;;;;;3.78;1.13;;;;;;;16.66;100.00;101562.06;4929762;28;20494;-77
2022/07/01 08:50:46;;;;;;;5.03;1.27;;;;;;;17.04;100.00;101565.19;4931181;28;20441;-78
2022/07/01 08:53:12;;;;;;;3.55;1.00;;;;;;;17.29;100.00;101561.00;4918069;28;20079;-79
2022/07/01 08:58:25;;;;;;;2.95;1.10;;;;;;;17.63;100.00;101556.16;4931795;28;20043;-77
2022/07/01 09:00:52;;;;;;;2.58;1.30;;;;;;;17.80;100.00;101555.06;4918796;28;20775;-78
2022/07/01 09:03:23;;;;;;;1.45;0.88;;;;;;;17.99;100.00;101556.56;4940456;28;20043;-77
2022/07/01 09:05:54;;;;;;;2.75;0.93;;;;;;;18.04;96.02;101557.97;4920875;28;20051;-77
2022/07/01 09:08:19;;;;;;;1.30;0.95;;;;;;;17.94;96.88;101559.53;4935601;28;20045;-76
2022/07/01 09:10:45;;;;;;;3.65;1.00;;;;;;;17.77;95.14;101572.19;4939179;28;20047;-76
2022/07/01 09:13:13;;;;;;;3.50;0.90;;;;;;;17.76;95.18;101572.31;4919350;28;20039;-76
2022/07/01 09:15:40;;;;;;;1.77;0.88;;;;;;;17.68;98.20;101569.25;4917327;28;20443;-77
2022/07/01 09:18:06;;;;;;;2.67;0.93;;;;;;;17.62;97.40;101570.50;4940918;28;20040;-78
2022/07/01 09:20:39;;;;;;;1.40;0.90;;;;;;;17.55;97.03;101580.78;4918475;28;20055;-77
2022/07/01 09:23:10;;;;;;;2.28;0.60;;;;;;;17.45;95.77;101588.53;4941030;28;20060;-78
2022/07/01 09:25:45;;;;;;;0.80;0.80;;;;;;;17.34;95.22;101591.84;4938516;28;20039;-79
2022/07/01 09:28:21;;;;;;;0.98;0.70;;;;;;;17.23;94.09;101595.19;4925151;28;20031;-79
2022/07/01 09:30:52;;;;;;;4.43;0.70;;;;;;;17.15;95.18;101583.28;4931360;28;20142;-79
2022/07/01 09:33:26;;;;;;;;;;;;;;;17.10;93.57;101592.44;4935847;28;21386;-82
2022/07/01 09:35:53;;;;;;;1.50;1.00;;;;;;;17.05;95.03;101617.75;4933857;28;20191;-78
2022/07/01 09:38:21;;;;;;;4.88;1.17;;;;;;;16.87;95.74;101625.88;4929515;28;20035;-80
2022/07/01 09:40:56;;;;;;;2.58;1.02;;;;;;;16.67;97.14;101640.44;4930490;28;20031;-79
2022/07/01 09:43:28;;;;;;;1.08;0.85;;;;;;;16.39;99.16;101639.34;4918155;28;20060;-80
2022/07/01 09:46:03;;;;;;;1.92;0.80;;;;;;;16.18;100.00;101639.63;4936244;28;20047;-79
2022/07/01 09:48:31;;;;;;;1.30;0.98;;;;;;;16.02;100.00;101637.84;4915224;28;21766;-77
2022/07/01 09:50:57;;;;;;;2.10;1.00;;;;;;;15.87;100.00;101634.16;4910459;28;20075;-77
2022/07/01 09:53:23;;;;;;;2.75;1.35;;;;;;;15.79;100.00;101646.25;4932921;28;20206;-78
2022/07/01 09:55:49;;;;;;;1.65;1.38;;;;;;;15.72;100.00;101630.56;4917012;28;20042;-78
2022/07/01 09:58:14;;;;;;;2.53;1.08;;;;;;;15.68;100.00;101633.50;4934345;28;20071;-77
2022/07/01 10:00:40;;;;;;;1.38;1.27;;;;;;;15.70;100.00;101639.59;4930374;28;20050;-78
2022/07/01 10:03:07;;;;;;;1.10;1.00;;;;;;;15.78;100.00;101637.34;4887168;28;20035;-78
2022/07/01 10:05:41;;;;;;;3.47;1.40;;;;;;;15.81;100.00;101634.53;4915508;28;20405;-78
2022/07/01 10:08:31;;;;;;;2.53;1.30;;;;;;;15.88;100.00;101635.91;4917292;28;20498;-78
2022/07/01 10:11:25;;;;;;;2.28;1.20;;;;;;;15.98;100.00;101648.78;4931810;28;20039;-77
2022/07/01 10:13:52;;;;;;;3.65;1.38;;;;;;;16.19;100.00;101643.19;4927503;28;20051;-78
2022/07/01 10:16:20;;;;;;;1.83;1.20;;;;;;;16.49;100.00;101639.69;4920517;28;20066;-78
2022/07/01 10:18:45;;;;;;;3.05;1.27;;;;;;;16.67;100.00;101638.63;4917658;28;20040;-78
2022/07/01 10:21:26;;;;;;;2.00;1.20;;;;;;;16.78;100.00;101642.47;4912257;28;20046;-78
2022/07/01 10:23:54;;;;;;;1.40;1.20;;;;;;;16.88;100.00;101638.28;4914128;28;20394;-77
2022/07/01 10:26:29;;;;;;;2.30;1.30;;;;;;;16.93;100.00;101641.56;4928150;28;20078;-78
2022/07/01 10:28:54;;;;;;;1.13;0.90;;;;;;;16.95;100.00;101645.00;4933067;28;20050;-77
2022/07/01 10:31:35;;;;;;;2.00;1.05;;;;;;;16.96;100.00;101644.03;4912320;28;20371;-77
2022/07/01 10:34:01;;;;;;;2.17;1.48;;;;;;;16.92;100.00;101642.53;4932807;28;20043;-78
2022/07/01 10:36:33;;;;;;;2.33;1.02;;;;;;;16.91;100.00;101651.50;4911986;28;20056;-78
2022/07/01 10:39:08;;;;;;;2.97;2.15;;;;;;;16.90;100.00;101657.81;4910834;28;20114;-78
2022/07/01 10:41:39;;;;;;;2.05;1.48;;;;;;;16.90;100.00;101646.22;4911476;28;20113;-79
2022/07/01 10:44:07;;;;;;;3.38;1.77;;;;;;;16.93;100.00;101644.25;4933461;28;20138;-78
2022/07/01 10:46:41;;;;;;;2.17;1.42;;;;;;;16.96;100.00;101649.38;4914436;28;20758;-75
2022/07/01 10:49:36;;;;;;;2.25;1.33;;;;;;;16.95;100.00;101653.03;4932713;28;20398;-78
2022/07/01 10:52:14;;;;;;;3.17;0.95;;;;;;;16.88;100.00;101665.03;4920619;28;20047;-78
2022/07/01 10:54:39;;;;;;;2.70;1.23;;;;;;;16.81;100.00;101661.00;4931755;28;20473;-77
2022/07/01 10:59:53;;;;;;;1.20;0.80;;;;;;;16.68;99.38;101663.56;4931405;28;20047;-77
2022/07/01 11:02:39;;;;;;;2.35;1.20;;;;;;;16.70;97.86;101659.84;4926996;28;20791;-76
2022/07/01 11:05:12;;;;;;;1.80;0.70;;;;;;;16.89;97.72;101653.38;4916691;28;20047;-76
2022/07/01 11:07:42;;;;;;;1.25;0.80;;;;;;;17.12;96.34;101648.53;4928303;28;20083;-77
2022/07/01 11:10:10;;;;;;;2.72;1.10;;;;;;;17.34;90.52;101647.19;4933161;28;20051;-78
2022/07/01 11:12:40;;;;;;;1.75;1.10;;;;;;;17.57;92.20;101652.94;4929708;28;20140;-76
2022/07/01 11:15:10;;;;;;;1.17;0.88;;;;;;;17.72;89.00;101660.03;4933250;28;20043;-76
2022/07/01 11:17:43;;;;;;;2.75;1.08;;;;;;;17.85;90.63;101657.41;4932381;28;20130;-76
2022/07/01 11:20:09;;;;;;;1.30;0.95;;;;;;;18.00;91.77;101660.06;4932193;28;20865;-77
2022/07/01 11:22:35;;;;;;;1.30;0.88;;;;;;;18.03;90.35;101658.06;4931397;28;20047;-77
2022/07/01 11:25:09;;;;;;;1.33;0.80;;;;;;;17.94;88.23;101661.34;4917003;28;20162;-79
2022/07/01 11:27:36;;;;;;;2.55;1.00;;;;;;;17.88;88.23;101656.38;4928447;28;20055;-76
2022/07/01 11:30:05;;;;;;;1.10;0.95;;;;;;;17.89;88.98;101655.41;4931699;28;20482;-77
2022/07/01 11:32:46;;;;;;;1.80;0.88;;;;;;;18.03;89.77;101658.06;4917640;28;20763;-78
2022/07/01 11:40:53;;;;;;;1.33;0.73;;;;;;;18.29;85.89;101660.03;4915064;28;20580;-76
2022/07/01 11:43:24;;;;;;;1.75;0.60;;;;;;;18.27;82.88;101657.47;4932802;28;20059;-78
2022/07/01 11:45:50;;;;;;;0.57;0.50;;;;;;;18.39;86.26;101653.13;4913563;28;20423;-76